createdAt,value
2019-03-26T00:00:09.288Z,1020.3
2019-03-26T00:00:49.668Z,1020.33
2019-03-26T00:01:30.089Z,1020.38
2019-03-26T00:02:10.459Z,1020.39
2019-03-26T00:02:50.910Z,1020.34
2019-03-26T00:03:31.312Z,1020.33
2019-03-26T00:04:11.728Z,1020.36
2019-03-26T00:04:52.161Z,1020.38
2019-03-26T00:05:32.583Z,1020.3
2019-03-26T00:06:13.015Z,1020.34
2019-03-26T00:06:53.423Z,1020.3
2019-03-26T00:07:33.856Z,1020.31
2019-03-26T00:08:14.278Z,1020.28
2019-03-26T00:08:54.681Z,1020.29
2019-03-26T00:09:35.118Z,1020.33
2019-03-26T00:10:15.559Z,1020.31
2019-03-26T00:10:55.968Z,1020.33
2019-03-26T00:11:36.447Z,1020.31
2019-03-26T00:12:16.731Z,1020.28
2019-03-26T00:12:57.140Z,1020.31
2019-03-26T00:13:39.334Z,1020.35
2019-03-26T00:14:20.676Z,1020.29
2019-03-26T00:15:01.318Z,1020.32
2019-03-26T00:15:41.708Z,1020.33
2019-03-26T00:16:23.838Z,1020.38
2019-03-26T00:17:04.934Z,1020.34
2019-03-26T00:17:45.335Z,1020.37
2019-03-26T00:18:25.804Z,1020.38
2019-03-26T00:19:06.167Z,1020.43
2019-03-26T00:19:49.688Z,1020.42
2019-03-26T00:20:30.074Z,1020.39
2019-03-26T00:21:10.490Z,1020.35
2019-03-26T00:21:50.930Z,1020.4
2019-03-26T00:22:31.372Z,1020.41
2019-03-26T00:23:11.733Z,1020.4
2019-03-26T00:23:52.158Z,1020.42
2019-03-26T00:24:32.533Z,1020.4
2019-03-26T00:25:16.529Z,1020.35
2019-03-26T00:25:56.920Z,1020.43
2019-03-26T00:26:37.292Z,1020.42
2019-03-26T00:27:17.680Z,1020.45
2019-03-26T00:27:58.064Z,1020.43
2019-03-26T00:28:38.445Z,1020.45
2019-03-26T00:29:20.228Z,1020.44
2019-03-26T00:30:02.244Z,1020.47
2019-03-26T00:30:42.654Z,1020.45
2019-03-26T00:31:23.017Z,1020.49
2019-03-26T00:32:03.422Z,1020.47
2019-03-26T00:32:43.847Z,1020.51
2019-03-26T00:33:35.606Z,1020.48
2019-03-26T00:34:04.752Z,1020.48
2019-03-26T00:34:45.160Z,1020.49
2019-03-26T00:35:25.638Z,1020.5
2019-03-26T00:36:05.934Z,1020.53
2019-03-26T00:36:46.320Z,1020.51
2019-03-26T00:37:27.828Z,1020.48
2019-03-26T00:38:10.076Z,1020.53
2019-03-26T00:38:50.554Z,1020.48
2019-03-26T00:39:30.852Z,1020.5
2019-03-26T00:40:11.213Z,1020.4
2019-03-26T00:40:53.568Z,1020.47
2019-03-26T00:41:33.932Z,1020.42
2019-03-26T00:42:14.324Z,1020.44
2019-03-26T00:42:54.688Z,1020.42
2019-03-26T00:43:35.182Z,1020.46
2019-03-26T00:44:17.155Z,1020.49
2019-03-26T00:44:57.574Z,1020.44
2019-03-26T00:45:38.025Z,1020.43
2019-03-26T00:46:21.005Z,1020.45
2019-03-26T00:47:01.390Z,1020.43
2019-03-26T00:47:41.771Z,1020.41
2019-03-26T00:48:22.194Z,1020.42
2019-03-26T00:49:04.757Z,1020.42
2019-03-26T00:49:45.116Z,1020.45
2019-03-26T00:50:25.659Z,1020.44
2019-03-26T00:51:05.992Z,1020.5
2019-03-26T00:51:46.405Z,1020.49
2019-03-26T00:52:26.784Z,1020.47
2019-03-26T00:53:07.210Z,1020.46
2019-03-26T00:53:47.622Z,1020.51
2019-03-26T00:54:28.050Z,1020.46
2019-03-26T00:55:21.565Z,1020.47
2019-03-26T00:55:48.906Z,1020.47
2019-03-26T00:56:29.309Z,1020.48
2019-03-26T00:57:09.714Z,1020.49
2019-03-26T00:57:50.139Z,1020.47
2019-03-26T00:58:30.539Z,1020.46
2019-03-26T00:59:10.942Z,1020.49
2019-03-26T00:59:51.375Z,1020.48
2019-03-26T01:00:31.793Z,1020.42
2019-03-26T01:01:12.242Z,1020.51
2019-03-26T01:01:56.468Z,1020.5
2019-03-26T01:02:37.852Z,1020.54
2019-03-26T01:03:18.329Z,1020.5
2019-03-26T01:03:58.739Z,1020.54
2019-03-26T01:04:39.166Z,1020.53
2019-03-26T01:05:19.601Z,1020.5
2019-03-26T01:06:00.305Z,1020.54
2019-03-26T01:06:40.652Z,1020.5
2019-03-26T01:07:21.039Z,1020.55
2019-03-26T01:08:01.511Z,1020.5
2019-03-26T01:08:41.816Z,1020.53
2019-03-26T01:09:22.272Z,1020.52
2019-03-26T01:10:02.641Z,1020.51
2019-03-26T01:10:43.600Z,1020.47
2019-03-26T01:11:26.232Z,1020.51
2019-03-26T01:12:06.582Z,1020.5
2019-03-26T01:12:46.976Z,1020.56
2019-03-26T01:13:29.380Z,1020.49
2019-03-26T01:14:09.778Z,1020.5
2019-03-26T01:14:50.366Z,1020.53
2019-03-26T01:15:30.675Z,1020.53
2019-03-26T01:16:11.077Z,1020.53
2019-03-26T01:16:51.519Z,1020.53
2019-03-26T01:17:34.225Z,1020.51
2019-03-26T01:18:14.622Z,1020.55
2019-03-26T01:18:54.998Z,1020.53
2019-03-26T01:19:35.416Z,1020.55
2019-03-26T01:20:15.843Z,1020.57
2019-03-26T01:20:56.309Z,1020.54
2019-03-26T01:21:37.632Z,1020.53
2019-03-26T01:22:18.001Z,1020.54
2019-03-26T01:22:58.430Z,1020.53
2019-03-26T01:23:38.858Z,1020.54
2019-03-26T01:24:19.251Z,1020.51
2019-03-26T01:24:59.664Z,1020.47
2019-03-26T01:25:40.083Z,1020.47
2019-03-26T01:26:20.505Z,1020.45
2019-03-26T01:27:00.926Z,1020.53
2019-03-26T01:27:41.342Z,1020.46
2019-03-26T01:28:21.764Z,1020.5
2019-03-26T01:29:02.189Z,1020.54
2019-03-26T01:29:42.683Z,1020.52
2019-03-26T01:30:23.005Z,1020.54
2019-03-26T01:31:03.443Z,1020.62
2019-03-26T01:31:45.220Z,1020.58
2019-03-26T01:32:28.527Z,1020.56
2019-03-26T01:33:08.760Z,1020.59
2019-03-26T01:33:49.160Z,1020.62
2019-03-26T01:34:29.542Z,1020.62
2019-03-26T01:35:09.940Z,1020.62
2019-03-26T01:35:50.345Z,1020.61
2019-03-26T01:36:30.737Z,1020.62
2019-03-26T01:37:11.142Z,1020.63
2019-03-26T01:37:51.506Z,1020.61
2019-03-26T01:38:31.958Z,1020.6
2019-03-26T01:39:12.306Z,1020.64
2019-03-26T01:39:52.700Z,1020.62
2019-03-26T01:40:33.102Z,1020.66
2019-03-26T01:41:13.535Z,1020.64
2019-03-26T01:41:53.904Z,1020.62
2019-03-26T01:42:34.339Z,1020.62
2019-03-26T01:43:14.703Z,1020.64
2019-03-26T01:43:55.107Z,1020.66
2019-03-26T01:44:35.528Z,1020.67
2019-03-26T01:45:15.949Z,1020.7
2019-03-26T01:45:56.360Z,1020.64
2019-03-26T01:46:36.761Z,1020.7
2019-03-26T01:47:17.236Z,1020.66
2019-03-26T01:47:57.692Z,1020.66
2019-03-26T01:48:38.075Z,1020.71
2019-03-26T01:49:18.487Z,1020.7
2019-03-26T01:49:58.908Z,1020.74
2019-03-26T01:50:39.320Z,1020.69
2019-03-26T01:51:19.754Z,1020.72
2019-03-26T01:52:00.133Z,1020.75
2019-03-26T01:52:40.561Z,1020.75
2019-03-26T01:53:20.990Z,1020.75
2019-03-26T01:54:01.369Z,1020.69
2019-03-26T01:54:41.783Z,1020.73
2019-03-26T01:55:22.188Z,1020.75
2019-03-26T01:56:02.600Z,1020.73
2019-03-26T01:56:43.023Z,1020.75
2019-03-26T01:57:23.444Z,1020.75
2019-03-26T01:58:03.869Z,1020.78
2019-03-26T01:58:44.332Z,1020.78
2019-03-26T01:59:24.720Z,1020.75
2019-03-26T02:00:05.134Z,1020.75
2019-03-26T02:00:46.173Z,1020.74
2019-03-26T02:03:04.027Z,1020.69
2019-03-26T02:03:44.449Z,1020.72
2019-03-26T02:04:24.822Z,1020.71
2019-03-26T02:05:11.368Z,1020.73
2019-03-26T02:05:51.777Z,1020.74
2019-03-26T02:06:32.211Z,1020.73
2019-03-26T02:07:12.664Z,1020.83
2019-03-26T02:07:53.177Z,1020.81
2019-03-26T02:08:33.629Z,1020.78
2019-03-26T02:09:13.982Z,1020.78
2019-03-26T02:09:54.403Z,1020.83
2019-03-26T02:10:35.198Z,1020.79
2019-03-26T02:11:15.552Z,1020.79
2019-03-26T02:11:55.964Z,1020.79
2019-03-26T02:12:36.298Z,1020.77
2019-03-26T02:13:18.660Z,1020.75
2019-03-26T02:13:59.055Z,1020.82
2019-03-26T02:14:39.509Z,1020.82
2019-03-26T02:15:19.913Z,1020.81
2019-03-26T02:16:00.325Z,1020.81
2019-03-26T02:16:40.752Z,1020.85
2019-03-26T02:17:21.293Z,1020.79
2019-03-26T02:18:01.712Z,1020.84
2019-03-26T02:18:42.123Z,1020.82
2019-03-26T02:19:22.532Z,1020.79
2019-03-26T02:20:02.940Z,1020.79
2019-03-26T02:20:43.357Z,1020.81
2019-03-26T02:21:23.766Z,1020.81
2019-03-26T02:22:04.161Z,1020.81
2019-03-26T02:22:44.569Z,1020.83
2019-03-26T02:23:24.999Z,1020.83
2019-03-26T02:24:05.431Z,1020.84
2019-03-26T02:24:46.266Z,1020.78
2019-03-26T02:25:26.609Z,1020.82
2019-03-26T02:26:06.994Z,1020.82
2019-03-26T02:26:47.733Z,1020.83
2019-03-26T02:27:28.118Z,1020.79
2019-03-26T02:28:08.543Z,1020.8
2019-03-26T02:28:48.972Z,1020.81
2019-03-26T02:29:29.421Z,1020.76
2019-03-26T02:30:09.848Z,1020.76
2019-03-26T02:30:50.276Z,1020.81
2019-03-26T02:31:30.693Z,1020.74
2019-03-26T02:32:11.156Z,1020.78
2019-03-26T02:32:51.573Z,1020.72
2019-03-26T02:33:31.991Z,1020.78
2019-03-26T02:34:12.471Z,1020.76
2019-03-26T02:34:52.777Z,1020.73
2019-03-26T02:35:33.232Z,1020.78
2019-03-26T02:36:13.623Z,1020.86
2019-03-26T02:36:54.025Z,1020.78
2019-03-26T02:37:34.468Z,1020.81
2019-03-26T02:38:14.891Z,1020.86
2019-03-26T02:38:55.317Z,1020.89
2019-03-26T02:39:35.738Z,1020.87
2019-03-26T02:40:16.175Z,1020.89
2019-03-26T02:40:56.570Z,1020.89
2019-03-26T02:41:37.921Z,1020.84
2019-03-26T02:42:17.423Z,1020.86
2019-03-26T02:42:57.841Z,1020.84
2019-03-26T02:43:38.271Z,1020.84
2019-03-26T02:44:18.693Z,1020.88
2019-03-26T02:44:59.111Z,1020.86
2019-03-26T02:45:39.527Z,1020.84
2019-03-26T02:46:19.909Z,1020.83
2019-03-26T02:47:00.311Z,1020.84
2019-03-26T02:47:40.766Z,1020.82
2019-03-26T02:48:21.164Z,1020.83
2019-03-26T02:49:01.600Z,1020.84
2019-03-26T02:49:42.043Z,1020.82
2019-03-26T02:50:22.439Z,1020.83
2019-03-26T02:51:02.883Z,1020.81
2019-03-26T02:51:43.306Z,1020.84
2019-03-26T02:52:23.720Z,1020.86
2019-03-26T02:53:08.395Z,1020.85
2019-03-26T02:53:44.577Z,1020.83
2019-03-26T02:54:24.963Z,1020.89
2019-03-26T02:55:05.383Z,1020.87
2019-03-26T02:55:45.796Z,1020.89
2019-03-26T02:56:26.228Z,1020.95
2019-03-26T02:57:06.650Z,1020.9
2019-03-26T02:57:47.154Z,1020.94
2019-03-26T02:58:27.507Z,1020.87
2019-03-26T02:59:07.936Z,1020.88
2019-03-26T02:59:48.342Z,1020.94
2019-03-26T03:00:28.735Z,1020.89
2019-03-26T03:01:09.179Z,1020.9
2019-03-26T03:01:49.581Z,1020.88
2019-03-26T03:02:29.971Z,1020.87
2019-03-26T03:03:10.382Z,1020.83
2019-03-26T03:03:50.823Z,1020.83
2019-03-26T03:04:31.258Z,1020.82
2019-03-26T03:05:11.642Z,1020.86
2019-03-26T03:05:52.052Z,1020.76
2019-03-26T03:06:32.522Z,1020.85
2019-03-26T03:07:12.892Z,1020.8
2019-03-26T03:07:53.354Z,1020.83
2019-03-26T03:08:33.776Z,1020.78
2019-03-26T03:09:14.200Z,1020.78
2019-03-26T03:09:54.599Z,1020.76
2019-03-26T03:10:35.118Z,1020.75
2019-03-26T03:11:15.542Z,1020.75
2019-03-26T03:11:55.984Z,1020.76
2019-03-26T03:12:36.375Z,1020.77
2019-03-26T03:13:16.807Z,1020.79
2019-03-26T03:13:57.247Z,1020.73
2019-03-26T03:14:37.564Z,1020.78
2019-03-26T03:15:17.961Z,1020.79
2019-03-26T03:15:58.399Z,1020.83
2019-03-26T03:16:38.811Z,1020.85
2019-03-26T03:17:19.245Z,1020.83
2019-03-26T03:17:59.663Z,1020.89
2019-03-26T03:18:40.076Z,1020.87
2019-03-26T03:19:20.581Z,1020.84
2019-03-26T03:20:00.941Z,1020.87
2019-03-26T03:20:41.302Z,1020.82
2019-03-26T03:21:21.745Z,1020.85
2019-03-26T03:22:02.089Z,1020.83
2019-03-26T03:22:42.591Z,1020.82
2019-03-26T03:23:22.890Z,1020.78
2019-03-26T03:24:03.339Z,1020.76
2019-03-26T03:24:43.693Z,1020.78
2019-03-26T03:25:24.134Z,1020.78
2019-03-26T03:26:04.529Z,1020.82
2019-03-26T03:26:44.948Z,1020.78
2019-03-26T03:27:25.402Z,1020.85
2019-03-26T03:28:06.272Z,1020.85
2019-03-26T03:28:46.608Z,1020.86
2019-03-26T03:29:28.600Z,1020.86
2019-03-26T03:30:08.995Z,1020.87
2019-03-26T03:30:50.292Z,1020.86
2019-03-26T03:31:30.689Z,1020.87
2019-03-26T03:32:11.080Z,1020.81
2019-03-26T03:32:52.213Z,1020.88
2019-03-26T03:33:32.712Z,1020.9
2019-03-26T03:34:13.077Z,1020.85
2019-03-26T03:34:53.654Z,1020.89
2019-03-26T03:35:50.705Z,1020.91
2019-03-26T03:36:14.306Z,1020.9
2019-03-26T03:36:54.725Z,1020.89
2019-03-26T03:37:35.172Z,1020.92
2019-03-26T03:38:15.588Z,1020.88
2019-03-26T03:38:56.024Z,1020.92
2019-03-26T03:39:36.414Z,1020.92
2019-03-26T03:40:16.843Z,1020.97
2019-03-26T03:40:57.292Z,1020.93
2019-03-26T03:41:37.737Z,1020.97
2019-03-26T03:42:18.126Z,1020.97
2019-03-26T03:42:58.536Z,1020.96
2019-03-26T03:43:38.966Z,1020.93
2019-03-26T03:44:19.357Z,1021
2019-03-26T03:44:59.764Z,1020.94
2019-03-26T03:45:40.358Z,1020.97
2019-03-26T03:46:20.901Z,1020.97
2019-03-26T03:47:02.862Z,1020.97
2019-03-26T03:47:43.256Z,1021
2019-03-26T03:48:23.652Z,1020.96
2019-03-26T03:49:04.145Z,1020.99
2019-03-26T03:49:44.487Z,1020.98
2019-03-26T03:50:24.899Z,1020.94
2019-03-26T03:51:05.330Z,1020.96
2019-03-26T03:51:45.742Z,1020.98
2019-03-26T03:52:26.218Z,1020.99
2019-03-26T03:53:06.584Z,1020.98
2019-03-26T03:53:47.010Z,1021
2019-03-26T03:54:27.434Z,1021.06
2019-03-26T03:55:07.866Z,1021.03
2019-03-26T03:55:48.290Z,1021.01
2019-03-26T03:56:29.638Z,1020.97
2019-03-26T03:57:09.980Z,1021.01
2019-03-26T03:57:52.701Z,1021.01
2019-03-26T03:58:35.696Z,1020.94
2019-03-26T03:59:16.082Z,1020.99
2019-03-26T03:59:56.509Z,1021.02
2019-03-26T04:00:36.983Z,1020.99
2019-03-26T04:01:17.311Z,1021.01
2019-03-26T04:01:59.801Z,1021.06
2019-03-26T04:02:41.793Z,1021.04
2019-03-26T04:03:22.211Z,1021.1
2019-03-26T04:04:03.370Z,1021.02
2019-03-26T04:04:45.073Z,1021.09
2019-03-26T04:05:25.752Z,1021.07
2019-03-26T04:06:09.258Z,1021.07
2019-03-26T04:06:46.531Z,1021.09
2019-03-26T04:07:28.678Z,1021.11
2019-03-26T04:08:09.012Z,1021.08
2019-03-26T04:08:49.540Z,1021.08
2019-03-26T04:09:29.952Z,1021.1
2019-03-26T04:10:10.317Z,1021.11
2019-03-26T04:10:50.736Z,1021.11
2019-03-26T04:11:31.141Z,1021.12
2019-03-26T04:12:12.410Z,1021.11
2019-03-26T04:12:53.701Z,1021.1
2019-03-26T04:13:34.086Z,1021.12
2019-03-26T04:14:14.460Z,1021.13
2019-03-26T04:14:54.911Z,1021.09
2019-03-26T04:15:35.484Z,1021.12
2019-03-26T04:16:15.696Z,1021.04
2019-03-26T04:16:56.417Z,1021.04
2019-03-26T04:17:36.641Z,1021.1
2019-03-26T04:18:17.089Z,1021.08
2019-03-26T04:18:57.527Z,1021.09
2019-03-26T04:19:37.890Z,1021.02
2019-03-26T04:20:18.333Z,1021.06
2019-03-26T04:20:58.732Z,1021.1
2019-03-26T04:21:39.145Z,1021.11
2019-03-26T04:22:19.607Z,1021.1
2019-03-26T04:22:59.974Z,1021.15
2019-03-26T04:23:40.374Z,1021.13
2019-03-26T04:24:20.754Z,1021.14
2019-03-26T04:25:01.138Z,1021.16
2019-03-26T04:25:41.658Z,1021.13
2019-03-26T04:26:22.162Z,1021.1
2019-03-26T04:27:02.602Z,1021.09
2019-03-26T04:27:42.936Z,1021.11
2019-03-26T05:06:55.301Z,1021.16
2019-03-26T05:07:35.532Z,1021.19
2019-03-26T05:08:15.933Z,1021.22
2019-03-26T05:08:56.356Z,1021.17
2019-03-26T05:09:36.762Z,1021.2
2019-03-26T05:10:17.175Z,1021.18
2019-03-26T05:10:57.594Z,1021.18
2019-03-26T05:11:37.991Z,1021.2
2019-03-26T05:12:18.418Z,1021.23
2019-03-26T05:12:58.848Z,1021.2
2019-03-26T05:13:39.271Z,1021.2
2019-03-26T05:14:19.679Z,1021.18
2019-03-26T05:15:00.104Z,1021.16
2019-03-26T05:15:40.469Z,1021.15
2019-03-26T05:16:20.879Z,1021.18
2019-03-26T05:17:01.366Z,1021.21
2019-03-26T05:17:41.792Z,1021.2
2019-03-26T05:18:22.123Z,1021.2
2019-03-26T05:19:02.533Z,1021.24
2019-03-26T05:21:18.463Z,1021.17
2019-03-26T05:21:58.855Z,1021.15
2019-03-26T05:22:39.277Z,1021.12
2019-03-26T05:24:51.979Z,1021.16
2019-03-26T05:25:32.239Z,1021.13
2019-03-26T05:26:12.651Z,1021.1
2019-03-26T05:26:53.070Z,1021.15
2019-03-26T05:27:44.775Z,1021.08
2019-03-26T05:28:13.884Z,1021.09
2019-03-26T05:28:54.293Z,1021.09
2019-03-26T05:29:34.694Z,1021.14
2019-03-26T05:30:15.163Z,1021.14
2019-03-26T05:30:55.735Z,1021.15
2019-03-26T05:31:36.107Z,1021.12
2019-03-26T05:32:16.512Z,1021.12
2019-03-26T05:32:56.942Z,1021.13
2019-03-26T05:33:37.359Z,1021.11
2019-03-26T05:34:17.741Z,1021.12
2019-03-26T05:34:58.158Z,1021.12
2019-03-26T05:35:38.576Z,1021.09
2019-03-26T05:36:19.009Z,1021.09
2019-03-26T05:37:00.281Z,1021.07
2019-03-26T05:37:40.672Z,1021.02
2019-03-26T05:38:21.080Z,1020.99
2019-03-26T05:39:01.508Z,1020.97
2019-03-26T05:39:41.896Z,1021.05
2019-03-26T05:40:22.355Z,1021.01
2019-03-26T05:41:02.924Z,1020.99
2019-03-26T05:41:43.318Z,1020.99
2019-03-26T05:42:23.734Z,1021.01
2019-03-26T05:43:04.146Z,1021.03
2019-03-26T05:43:44.647Z,1021.06
2019-03-26T05:44:25.035Z,1021.05
2019-03-26T05:45:05.390Z,1021.01
2019-03-26T05:45:45.776Z,1021.1
2019-03-26T05:46:26.248Z,1021.05
2019-03-26T05:47:06.638Z,1021.06
2019-03-26T05:47:47.002Z,1021.05
2019-03-26T05:48:27.442Z,1021.09
2019-03-26T05:49:07.859Z,1021.1
2019-03-26T05:49:48.333Z,1021.08
2019-03-26T05:50:28.759Z,1021.12
2019-03-26T05:51:09.120Z,1021.13
2019-03-26T05:55:33.598Z,1021.11
2019-03-26T05:56:14.139Z,1021.12
2019-03-26T05:56:54.557Z,1021.07
2019-03-26T05:57:36.960Z,1021.15
2019-03-26T05:58:17.404Z,1021.12
2019-03-26T05:58:57.822Z,1021.14
2019-03-26T05:59:38.228Z,1021.18
2019-03-26T06:00:18.722Z,1021.19
2019-03-26T06:00:59.055Z,1021.22
2019-03-26T06:01:43.383Z,1021.24
2019-03-26T06:02:23.830Z,1021.23
2019-03-26T06:03:04.290Z,1021.21
2019-03-26T06:03:44.683Z,1021.24
2019-03-26T06:04:25.100Z,1021.25
2019-03-26T06:05:05.506Z,1021.27
2019-03-26T06:05:45.909Z,1021.26
2019-03-26T06:06:26.315Z,1021.25
2019-03-26T06:07:06.725Z,1021.28
2019-03-26T06:07:47.221Z,1021.25
2019-03-26T06:08:27.581Z,1021.29
2019-03-26T06:09:07.965Z,1021.26
2019-03-26T06:09:48.482Z,1021.34
2019-03-26T06:10:28.902Z,1021.3
2019-03-26T06:11:09.324Z,1021.32
2019-03-26T06:11:49.771Z,1021.33
2019-03-26T06:12:30.186Z,1021.35
2019-03-26T06:13:10.591Z,1021.35
2019-03-26T06:13:51.012Z,1021.34
2019-03-26T06:14:31.419Z,1021.34
2019-03-26T06:15:11.821Z,1021.34
2019-03-26T06:15:52.228Z,1021.36
2019-03-26T06:16:38.064Z,1021.36
2019-03-26T06:17:13.027Z,1021.33
2019-03-26T06:17:53.462Z,1021.39
2019-03-26T06:18:33.853Z,1021.35
2019-03-26T06:19:14.271Z,1021.36
2019-03-26T06:19:54.658Z,1021.38
2019-03-26T06:20:35.081Z,1021.39
2019-03-26T06:21:15.501Z,1021.31
2019-03-26T06:21:55.897Z,1021.33
2019-03-26T06:22:37.700Z,1021.3
2019-03-26T06:23:17.969Z,1021.34
2019-03-26T06:23:58.817Z,1021.29
2019-03-26T06:24:39.254Z,1021.36
2019-03-26T06:25:19.692Z,1021.34
2019-03-26T06:26:00.140Z,1021.34
2019-03-26T06:26:40.694Z,1021.36
2019-03-26T06:27:21.030Z,1021.35
2019-03-26T06:28:01.427Z,1021.39
2019-03-26T06:28:41.964Z,1021.4
2019-03-26T06:29:22.380Z,1021.42
2019-03-26T06:31:36.967Z,1021.39
2019-03-26T06:32:17.240Z,1021.38
2019-03-26T06:32:57.717Z,1021.39
2019-03-26T06:33:38.142Z,1021.39
2019-03-26T06:34:18.496Z,1021.4
2019-03-26T06:34:59.073Z,1021.42
2019-03-26T06:35:39.488Z,1021.47
2019-03-26T06:36:19.869Z,1021.43
2019-03-26T06:37:00.332Z,1021.47
2019-03-26T06:37:42.431Z,1021.47
2019-03-26T06:38:22.903Z,1021.45
2019-03-26T06:39:03.354Z,1021.48
2019-03-26T06:39:44.081Z,1021.44
2019-03-26T06:40:24.440Z,1021.46
2019-03-26T06:41:04.816Z,1021.46
2019-03-26T06:41:45.252Z,1021.43
2019-03-26T06:42:25.670Z,1021.42
2019-03-26T06:43:06.080Z,1021.43
2019-03-26T06:43:46.435Z,1021.48
2019-03-26T06:44:28.671Z,1021.48
2019-03-26T06:45:09.093Z,1021.59
2019-03-26T06:45:49.730Z,1021.55
2019-03-26T06:46:30.180Z,1021.54
2019-03-26T06:47:10.603Z,1021.53
2019-03-26T06:47:51.001Z,1021.56
2019-03-26T06:48:31.375Z,1021.48
2019-03-26T06:49:11.873Z,1021.56
2019-03-26T06:49:52.271Z,1021.57
2019-03-26T06:50:32.671Z,1021.57
2019-03-26T06:51:13.084Z,1021.55
2019-03-26T06:51:53.526Z,1021.56
2019-03-26T06:52:33.924Z,1021.55
2019-03-26T06:55:06.723Z,1021.54
2019-03-26T06:55:46.765Z,1021.57
2019-03-26T06:56:27.199Z,1021.63
2019-03-26T06:57:08.343Z,1021.65
2019-03-26T06:57:48.166Z,1021.63
2019-03-26T06:58:28.545Z,1021.68
2019-03-26T06:59:08.970Z,1021.71
2019-03-26T06:59:49.408Z,1021.7
2019-03-26T07:00:29.792Z,1021.68
2019-03-26T07:01:10.238Z,1021.72
2019-03-26T07:01:50.648Z,1021.76
2019-03-26T07:02:31.021Z,1021.72
2019-03-26T07:03:11.390Z,1021.72
2019-03-26T07:03:52.644Z,1021.74
2019-03-26T07:04:33.081Z,1021.72
2019-03-26T07:05:13.455Z,1021.78
2019-03-26T07:05:53.938Z,1021.74
2019-03-26T07:06:34.413Z,1021.75
2019-03-26T07:07:14.814Z,1021.81
2019-03-26T07:07:55.225Z,1021.8
2019-03-26T07:08:35.652Z,1021.79
2019-03-26T07:09:16.153Z,1021.83
2019-03-26T07:09:56.616Z,1021.87
2019-03-26T07:10:37.010Z,1021.86
2019-03-26T07:11:17.448Z,1021.81
2019-03-26T07:11:57.904Z,1021.81
2019-03-26T07:12:38.759Z,1021.83
2019-03-26T07:13:19.232Z,1021.79
2019-03-26T07:13:59.889Z,1021.81
2019-03-26T07:14:40.278Z,1021.82
2019-03-26T07:15:20.721Z,1021.81
2019-03-26T07:16:01.113Z,1021.82
2019-03-26T07:16:41.507Z,1021.81
2019-03-26T07:17:21.917Z,1021.8
2019-03-26T07:18:02.428Z,1021.88
2019-03-26T07:18:42.837Z,1021.85
2019-03-26T07:19:23.256Z,1021.89
2019-03-26T07:20:03.623Z,1021.92
2019-03-26T07:20:44.043Z,1021.89
2019-03-26T07:21:24.483Z,1021.94
2019-03-26T07:22:04.972Z,1021.89
2019-03-26T07:22:45.372Z,1021.92
2019-03-26T07:23:25.822Z,1021.86
2019-03-26T07:24:06.234Z,1021.91
2019-03-26T07:24:46.693Z,1021.91
2019-03-26T07:25:27.112Z,1021.83
2019-03-26T07:26:07.523Z,1021.87
2019-03-26T07:26:47.974Z,1021.85
2019-03-26T07:27:28.374Z,1021.93
2019-03-26T07:28:08.831Z,1021.88
2019-03-26T07:28:49.234Z,1021.89
2019-03-26T07:32:38.047Z,1021.93
2019-03-26T07:33:19.536Z,1021.98
2019-03-26T07:33:59.990Z,1021.99
2019-03-26T07:34:40.351Z,1022
2019-03-26T07:35:20.818Z,1021.96
2019-03-26T07:36:01.209Z,1021.99
2019-03-26T07:36:41.650Z,1021.95
2019-03-26T07:37:22.015Z,1022
2019-03-26T07:38:02.512Z,1022.02
2019-03-26T07:38:42.865Z,1022
2019-03-26T07:39:23.302Z,1022.05
2019-03-26T07:40:03.922Z,1022
2019-03-26T07:40:45.963Z,1022.02
2019-03-26T07:41:26.229Z,1022.01
2019-03-26T07:42:06.831Z,1022.04
2019-03-26T07:42:47.146Z,1022.03
2019-03-26T07:43:27.754Z,1022.07
2019-03-26T07:44:08.194Z,1022.05
2019-03-26T07:44:48.977Z,1022.06
2019-03-26T07:45:29.363Z,1022.07
2019-03-26T07:46:09.808Z,1022.1
2019-03-26T07:46:50.315Z,1022.12
2019-03-26T07:47:30.718Z,1022.08
2019-03-26T07:48:11.352Z,1022.08
2019-03-26T07:48:51.759Z,1022.15
2019-03-26T07:49:32.147Z,1022.12
2019-03-26T07:50:13.988Z,1022.11
2019-03-26T07:50:52.938Z,1022.11
2019-03-26T07:52:52.334Z,1022.14
2019-03-26T07:53:32.734Z,1022.16
2019-03-26T07:54:13.203Z,1022.16
2019-03-26T07:54:53.559Z,1022.18
2019-03-26T07:55:35.719Z,1022.19
2019-03-26T07:56:16.158Z,1022.2
2019-03-26T07:56:56.679Z,1022.24
2019-03-26T07:57:37.104Z,1022.22
2019-03-26T07:58:17.510Z,1022.21
2019-03-26T07:58:57.917Z,1022.21
2019-03-26T07:59:39.668Z,1022.19
2019-03-26T08:00:19.389Z,1022.24
2019-03-26T08:00:59.802Z,1022.19
2019-03-26T08:01:41.059Z,1022.19
2019-03-26T08:02:20.999Z,1022.2
2019-03-26T08:03:01.571Z,1022.2
2019-03-26T08:03:41.964Z,1022.2
2019-03-26T08:04:22.395Z,1022.17
2019-03-26T08:05:02.807Z,1022.13
2019-03-26T08:05:45.775Z,1022.18
2019-03-26T08:06:27.062Z,1022.18
2019-03-26T08:07:07.439Z,1022.15
2019-03-26T08:07:57.660Z,1022.2
2019-03-26T08:08:28.640Z,1022.22
2019-03-26T08:09:09.049Z,1022.18
2019-03-26T08:09:49.492Z,1022.18
2019-03-26T08:10:30.180Z,1022.2
2019-03-26T08:11:15.049Z,1022.22
2019-03-26T08:11:54.935Z,1022.23
2019-03-26T08:12:35.386Z,1022.24
2019-03-26T08:13:15.791Z,1022.25
2019-03-26T08:13:56.195Z,1022.18
2019-03-26T08:14:38.296Z,1022.2
2019-03-26T08:15:20.238Z,1022.22
2019-03-26T08:15:59.644Z,1022.2
2019-03-26T08:16:40.140Z,1022.22
2019-03-26T08:17:20.665Z,1022.19
2019-03-26T08:18:02.181Z,1022.18
2019-03-26T08:18:41.779Z,1022.21
2019-03-26T08:19:22.189Z,1022.2
2019-03-26T08:20:02.606Z,1022.22
2019-03-26T08:20:43.058Z,1022.23
2019-03-26T08:21:23.465Z,1022.18
2019-03-26T08:22:03.906Z,1022.23
2019-03-26T08:22:44.434Z,1022.22
2019-03-26T08:23:25.567Z,1022.2
2019-03-26T08:24:05.503Z,1022.18
2019-03-26T08:24:48.179Z,1022.15
2019-03-26T08:25:33.690Z,1022.15
2019-03-26T08:26:13.500Z,1022.18
2019-03-26T08:26:54.084Z,1022.1
2019-03-26T08:27:35.130Z,1022.15
2019-03-26T08:28:15.606Z,1022.15
2019-03-26T08:28:56.326Z,1022.18
2019-03-26T08:29:37.023Z,1022.16
2019-03-26T08:30:17.945Z,1022.18
2019-03-26T08:30:59.121Z,1022.17
2019-03-26T08:31:40.212Z,1022.16
2019-03-26T08:32:20.556Z,1022.19
2019-03-26T08:33:01.344Z,1022.22
2019-03-26T08:33:42.594Z,1022.14
2019-03-26T08:34:24.162Z,1022.07
2019-03-26T08:35:04.804Z,1022.12
2019-03-26T08:35:47.069Z,1022.15
2019-03-26T08:36:27.530Z,1022.19
2019-03-26T08:37:08.459Z,1022.17
2019-03-26T08:37:49.326Z,1022.17
2019-03-26T08:38:33.466Z,1022.1
2019-03-26T08:39:14.605Z,1022.13
2019-03-26T08:39:55.740Z,1022.12
2019-03-26T08:40:36.713Z,1022.13
2019-03-26T08:41:17.657Z,1022.17
2019-03-26T08:41:58.261Z,1022.12
2019-03-26T08:42:38.884Z,1022.15
2019-03-26T08:43:19.605Z,1022.15
2019-03-26T08:44:00.553Z,1022.18
2019-03-26T08:44:41.368Z,1022.23
2019-03-26T08:45:24.009Z,1022.21
2019-03-26T08:46:04.375Z,1022.18
2019-03-26T08:46:46.894Z,1022.17
2019-03-26T08:47:27.355Z,1022.24
2019-03-26T08:48:09.017Z,1022.21
2019-03-26T08:48:49.707Z,1022.21
2019-03-26T08:49:33.372Z,1022.17
2019-03-26T08:50:14.559Z,1022.13
2019-03-26T08:50:59.027Z,1022.16
2019-03-26T08:51:39.719Z,1022.15
2019-03-26T08:52:21.113Z,1022.14
2019-03-26T08:53:02.111Z,1022.14
2019-03-26T08:53:42.043Z,1022.13
2019-03-26T08:54:23.581Z,1022.14
2019-03-26T08:55:04.393Z,1022.09
2019-03-26T08:55:43.668Z,1022.11
2019-03-26T08:56:24.086Z,1022.13
2019-03-26T08:57:04.927Z,1022.18
2019-03-26T08:57:45.327Z,1022.16
2019-03-26T08:58:25.728Z,1022.17
2019-03-26T08:59:06.642Z,1022.16
2019-03-26T08:59:46.634Z,1022.21
2019-03-26T09:00:27.046Z,1022.15
2019-03-26T09:01:07.491Z,1022.17
2019-03-26T09:01:47.988Z,1022.21
2019-03-26T09:02:29.326Z,1022.11
2019-03-26T09:03:09.794Z,1022.18
2019-03-26T09:03:50.143Z,1022.19
2019-03-26T09:04:36.766Z,1022.06
2019-03-26T09:05:17.912Z,1022.15
2019-03-26T09:05:58.616Z,1022.12
2019-03-26T09:06:39.247Z,1022.13
2019-03-26T09:07:20.200Z,1022.12
2019-03-26T09:08:02.102Z,1022.12